map of SHB home
SHB - Airport
Location
City:  Nakashibetsu, Hokkaido, Japan
Name:Nakashibetsu Airport
ICAO:RJCN
IATA:SHB

Details
Type:Airport (Aerodrome, Airfield)
Latitude:4334'39"N (43.577500)
Longitude:14457'36"E (144.960000)
Datum:WGS 1984
Elevation:234 ft (71 m)
Variation:9.05W (WMM2015v2 magnetic declination)
-0.06 annual change
Runways:1
Longest:6560 × 150 ft (1999 × 45.5 m), paved

Time
Time Zone:UTC+9
Local Time:

Weather
METAR:RJCN 040900Z 29010KT 260V330 8000 FEW008 SCT012 BKN040 M02/M07 Q0995

Related Locations
Nearby:
Farthest:PSY: 11244 mi / 18095 km
Stanley (Port Stanley) [Port Stanley], FK

Find:

   beyond  
but within

Other Information
Maps:
NOTAMs:
Links:
Sources:

  
  • flag of Japan
  • flag of Hokkaido
  

Sectional Chart

Flight Planning
at skyvector.com

Satellite Image

Google Maps Satellite view

 

Copyright © 2004-2019 Karl L. Swartz. All rights reserved.
The Great Circle Mapper name and logo are trademarks of the Great Circle Mapper.
All other trademarks mentioned herein belong to their respective owners.
Please see credits for attibutions and further copyright information.

  Follow gcmap on Facebook Follow gcmap on Twitter GCmap on LinkedIn

hCard Microformat

Geo Microformat